FDX36 LIMC-LEBL
Flight info
| Callsign | FDX36 |
|---|---|
| Flight time | 1h 10m |
| Altitude | 29000 |
| Route | NEDED DCT GEKBA DCT VAMTU DCT KOLON DCT GANGU DCT PADKO DCT DIVKO DCT NILDU DCT BISBA |
| Aircraft | MD11/H-SDE1E2E3FGHIJ2J3J4J5M1RWXYZ/LB1D1 |
Departure
| Time | 2026-05-04 22:20 |
|---|---|
| Airport | Milan Malpensa International Airport (LIMC) |
Arrival
| Time | 2026-05-04 23:30 |
|---|---|
| Airport | Josep Tarradellas Barcelona-El Prat Airport (LEBL) |
| Time | Latitude | Longitude | Altitude | Speed | Heading |
|---|---|---|---|---|---|
| 2026-05-04 21:59 | 45.60941 | 8.72037 | 744 ft | 0 kts | 259° |
| 2026-05-04 22:09 | 45.60941 | 8.72038 | 745 ft | 0 kts | 259° |
| 2026-05-04 22:09 | 45.60941 | 8.72040 | 744 ft | 2 kts | 259° |
| 2026-05-04 22:09 | 45.60945 | 8.72063 | 741 ft | 2 kts | 258° |
| 2026-05-04 22:09 | 45.60949 | 8.72086 | 740 ft | 2 kts | 256° |
| 2026-05-04 22:10 | 45.60953 | 8.72109 | 741 ft | 2 kts | 252° |
| 2026-05-04 22:10 | 45.60958 | 8.72131 | 741 ft | 2 kts | 246° |
| 2026-05-04 22:10 | 45.60966 | 8.72152 | 740 ft | 2 kts | 223° |
| 2026-05-04 22:10 | 45.60980 | 8.72163 | 741 ft | 2 kts | 175° |
| 2026-05-04 22:11 | 45.60986 | 8.72162 | 740 ft | 0 kts | 171° |
| 2026-05-04 22:13 | 45.60962 | 8.72167 | 741 ft | 8 kts | 170° |
| 2026-05-04 22:13 | 45.60883 | 8.72189 | 743 ft | 15 kts | 169° |
| 2026-05-04 22:13 | 45.60771 | 8.72220 | 744 ft | 16 kts | 169° |
| 2026-05-04 22:14 | 45.60669 | 8.72252 | 744 ft | 14 kts | 156° |
| 2026-05-04 22:14 | 45.60641 | 8.72357 | 741 ft | 11 kts | 86° |
| 2026-05-04 22:14 | 45.60639 | 8.72471 | 741 ft | 12 kts | 94° |
| 2026-05-04 22:14 | 45.60630 | 8.72605 | 742 ft | 15 kts | 96° |
| 2026-05-04 22:15 | 45.60616 | 8.72778 | 745 ft | 20 kts | 96° |
| 2026-05-04 22:15 | 45.60602 | 8.72968 | 743 ft | 19 kts | 96° |
| 2026-05-04 22:15 | 45.60589 | 8.73144 | 742 ft | 17 kts | 94° |
| 2026-05-04 22:15 | 45.60638 | 8.73259 | 741 ft | 14 kts | 35° |
| 2026-05-04 22:16 | 45.60725 | 8.73321 | 743 ft | 15 kts | 24° |
| 2026-05-04 22:16 | 45.60826 | 8.73381 | 742 ft | 17 kts | 22° |
| 2026-05-04 22:16 | 45.60949 | 8.73393 | 742 ft | 20 kts | 349° |
| 2026-05-04 22:16 | 45.61093 | 8.73355 | 743 ft | 21 kts | 349° |
| 2026-05-04 22:17 | 45.61226 | 8.73314 | 745 ft | 19 kts | 347° |
| 2026-05-04 22:17 | 45.61348 | 8.73280 | 743 ft | 17 kts | 349° |
| 2026-05-04 22:17 | 45.61461 | 8.73249 | 743 ft | 16 kts | 349° |
| 2026-05-04 22:17 | 45.61571 | 8.73228 | 742 ft | 15 kts | 9° |
| 2026-05-04 22:18 | 45.61627 | 8.73338 | 744 ft | 14 kts | 74° |
| 2026-05-04 22:18 | 45.61614 | 8.73469 | 742 ft | 13 kts | 112° |
| 2026-05-04 22:18 | 45.61588 | 8.73587 | 743 ft | 12 kts | 96° |
| 2026-05-04 22:18 | 45.61609 | 8.73702 | 741 ft | 12 kts | 49° |
| 2026-05-04 22:19 | 45.61680 | 8.73721 | 742 ft | 10 kts | 349° |
| 2026-05-04 22:19 | 45.61744 | 8.73703 | 742 ft | 9 kts | 349° |
| 2026-05-04 22:19 | 45.61930 | 8.73652 | 742 ft | 65 kts | 349° |
| 2026-05-04 22:19 | 45.62657 | 8.73450 | 744 ft | 145 kts | 349° |
| 2026-05-04 22:20 | 45.63841 | 8.73114 | 885 ft | 187 kts | 348° |
| 2026-05-04 22:20 | 45.65093 | 8.72800 | 1851 ft | 180 kts | 352° |
| 2026-05-04 22:20 | 45.66335 | 8.72711 | 2742 ft | 182 kts | 3° |
| 2026-05-04 22:20 | 45.67641 | 8.73094 | 3342 ft | 200 kts | 22° |
| 2026-05-04 22:21 | 45.68815 | 8.74218 | 3987 ft | 209 kts | 45° |
| 2026-05-04 22:21 | 45.69683 | 8.75929 | 4622 ft | 216 kts | 62° |
| 2026-05-04 22:21 | 45.70305 | 8.77886 | 5236 ft | 221 kts | 69° |
| 2026-05-04 22:21 | 45.70725 | 8.80015 | 5793 ft | 226 kts | 82° |
| 2026-05-04 22:22 | 45.70689 | 8.82278 | 6345 ft | 232 kts | 105° |
| 2026-05-04 22:22 | 45.69941 | 8.84360 | 6672 ft | 243 kts | 132° |
| 2026-05-04 22:22 | 45.68571 | 8.85775 | 7070 ft | 245 kts | 160° |
| 2026-05-04 22:22 | 45.66904 | 8.86061 | 7582 ft | 242 kts | 189° |
| 2026-05-04 22:23 | 45.65374 | 8.85158 | 8028 ft | 245 kts | 216° |
| 2026-05-04 22:23 | 45.64277 | 8.83266 | 8369 ft | 253 kts | 243° |
| 2026-05-04 22:23 | 45.63866 | 8.80800 | 8740 ft | 260 kts | 264° |
| 2026-05-04 22:23 | 45.63851 | 8.78199 | 9140 ft | 265 kts | 268° |
| 2026-05-04 22:24 | 45.63867 | 8.75522 | 9641 ft | 271 kts | 266° |
| 2026-05-04 22:24 | 45.63707 | 8.72869 | 10342 ft | 270 kts | 255° |
| 2026-05-04 22:24 | 45.63176 | 8.70256 | 10799 ft | 277 kts | 247° |
| 2026-05-04 22:24 | 45.62449 | 8.67602 | 11116 ft | 294 kts | 245° |
| 2026-05-04 22:25 | 45.61598 | 8.64847 | 11391 ft | 312 kts | 243° |
| 2026-05-04 22:25 | 45.60672 | 8.61999 | 11629 ft | 330 kts | 243° |
| 2026-05-04 22:25 | 45.59701 | 8.58995 | 12328 ft | 332 kts | 244° |
| 2026-05-04 22:25 | 45.58735 | 8.55928 | 12707 ft | 346 kts | 244° |
| 2026-05-04 22:26 | 45.57754 | 8.52723 | 13207 ft | 355 kts | 245° |
| 2026-05-04 22:26 | 45.56674 | 8.49516 | 13809 ft | 359 kts | 239° |
| 2026-05-04 22:26 | 45.55241 | 8.46594 | 14464 ft | 361 kts | 227° |
| 2026-05-04 22:26 | 45.53360 | 8.44218 | 15105 ft | 364 kts | 214° |
| 2026-05-04 22:27 | 45.51110 | 8.42532 | 15716 ft | 368 kts | 203° |
| 2026-05-04 22:27 | 45.48726 | 8.41281 | 16317 ft | 372 kts | 200° |
| 2026-05-04 22:27 | 45.46244 | 8.40132 | 16951 ft | 376 kts | 199° |
| 2026-05-04 22:27 | 45.43740 | 8.38987 | 17566 ft | 380 kts | 199° |
| 2026-05-04 22:28 | 45.41217 | 8.37808 | 18195 ft | 384 kts | 200° |
| 2026-05-04 22:28 | 45.38662 | 8.36584 | 18757 ft | 387 kts | 200° |
| 2026-05-04 22:28 | 45.36100 | 8.35336 | 19311 ft | 390 kts | 200° |
| 2026-05-04 22:28 | 45.33543 | 8.34078 | 19851 ft | 393 kts | 200° |
| 2026-05-04 22:29 | 45.30951 | 8.32796 | 20382 ft | 396 kts | 200° |
| 2026-05-04 22:29 | 45.29226 | 8.31941 | 20741 ft | 398 kts | 200° |
| 2026-05-04 22:29 | 45.26592 | 8.30635 | 21272 ft | 401 kts | 200° |
| 2026-05-04 22:29 | 45.23077 | 8.28894 | 21964 ft | 405 kts | 200° |
| 2026-05-04 22:30 | 45.21271 | 8.28000 | 22316 ft | 407 kts | 200° |
| 2026-05-04 22:30 | 45.18624 | 8.26691 | 22818 ft | 410 kts | 200° |
| 2026-05-04 22:30 | 45.15915 | 8.25353 | 23332 ft | 414 kts | 200° |
| 2026-05-04 22:30 | 45.13171 | 8.24000 | 23801 ft | 417 kts | 200° |
| 2026-05-04 22:31 | 45.10367 | 8.22879 | 24227 ft | 420 kts | 194° |
| 2026-05-04 22:31 | 45.07483 | 8.22095 | 24675 ft | 423 kts | 191° |
| 2026-05-04 22:31 | 45.04563 | 8.21460 | 25095 ft | 425 kts | 190° |
| 2026-05-04 22:31 | 45.01659 | 8.20876 | 25530 ft | 428 kts | 189° |
| 2026-05-04 22:32 | 44.98697 | 8.20282 | 25965 ft | 430 kts | 190° |
| 2026-05-04 22:32 | 44.95721 | 8.19672 | 26398 ft | 432 kts | 190° |
| 2026-05-04 22:32 | 44.92741 | 8.19046 | 26807 ft | 435 kts | 190° |
| 2026-05-04 22:32 | 44.89737 | 8.18405 | 27226 ft | 437 kts | 190° |
| 2026-05-04 22:33 | 44.86713 | 8.17754 | 27638 ft | 439 kts | 191° |
| 2026-05-04 22:33 | 44.83720 | 8.17108 | 28027 ft | 442 kts | 191° |
| 2026-05-04 22:33 | 44.80680 | 8.16451 | 28412 ft | 444 kts | 191° |
| 2026-05-04 22:33 | 44.77597 | 8.15786 | 28810 ft | 446 kts | 191° |
| 2026-05-04 22:34 | 44.74516 | 8.15122 | 29179 ft | 449 kts | 191° |
| 2026-05-04 22:34 | 44.71459 | 8.14432 | 29528 ft | 450 kts | 193° |
| 2026-05-04 22:34 | 44.68433 | 8.13264 | 29886 ft | 450 kts | 203° |
| 2026-05-04 22:34 | 44.65615 | 8.11360 | 30245 ft | 450 kts | 211° |
| 2026-05-04 22:35 | 44.62927 | 8.09069 | 30593 ft | 451 kts | 214° |
| 2026-05-04 22:35 | 44.60329 | 8.06688 | 30942 ft | 452 kts | 214° |
| 2026-05-04 22:35 | 44.57686 | 8.04253 | 31053 ft | 456 kts | 214° |
| 2026-05-04 22:36 | 44.52346 | 7.99473 | 31093 ft | 453 kts | 213° |
| 2026-05-04 22:36 | 44.47006 | 7.94839 | 31093 ft | 451 kts | 213° |
| 2026-05-04 22:37 | 44.41677 | 7.90264 | 31098 ft | 451 kts | 213° |
| 2026-05-04 22:37 | 44.36305 | 7.85665 | 31091 ft | 451 kts | 212° |
| 2026-05-04 22:38 | 44.30978 | 7.81111 | 31105 ft | 451 kts | 212° |
| 2026-05-04 22:38 | 44.25726 | 7.76326 | 31084 ft | 450 kts | 219° |
| 2026-05-04 22:39 | 44.20966 | 7.70643 | 31075 ft | 450 kts | 223° |
| 2026-05-04 22:39 | 44.16339 | 7.64762 | 31087 ft | 450 kts | 223° |
| 2026-05-04 22:40 | 44.11921 | 7.58666 | 31070 ft | 450 kts | 228° |
| 2026-05-04 22:40 | 44.07833 | 7.52078 | 31078 ft | 449 kts | 229° |
| 2026-05-04 22:41 | 44.03780 | 7.45434 | 31072 ft | 450 kts | 229° |
| 2026-05-04 22:41 | 43.99717 | 7.38860 | 31062 ft | 451 kts | 229° |
| 2026-05-04 22:42 | 43.95609 | 7.32268 | 31050 ft | 452 kts | 229° |
| 2026-05-04 22:42 | 43.91479 | 7.25664 | 31041 ft | 452 kts | 229° |
| 2026-05-04 22:43 | 43.87370 | 7.19110 | 31034 ft | 453 kts | 229° |
| 2026-05-04 22:43 | 43.83224 | 7.12510 | 31029 ft | 453 kts | 228° |
| 2026-05-04 22:44 | 43.79101 | 7.05962 | 31029 ft | 453 kts | 228° |
| 2026-05-04 22:44 | 43.74936 | 6.99362 | 31022 ft | 454 kts | 228° |
| 2026-05-04 22:45 | 43.71137 | 6.92403 | 31025 ft | 455 kts | 240° |
| 2026-05-04 22:45 | 43.67508 | 6.80272 | 31024 ft | 457 kts | 248° |
| 2026-05-04 22:46 | 43.65246 | 6.72070 | 31021 ft | 457 kts | 247° |
| 2026-05-04 22:46 | 43.62886 | 6.63909 | 31018 ft | 458 kts | 246° |
| 2026-05-04 22:47 | 43.60477 | 6.55755 | 31007 ft | 458 kts | 246° |
| 2026-05-04 22:47 | 43.58057 | 6.47607 | 30998 ft | 459 kts | 246° |
| 2026-05-04 22:48 | 43.55642 | 6.39495 | 30997 ft | 460 kts | 246° |
| 2026-05-04 22:48 | 43.53209 | 6.31342 | 30994 ft | 460 kts | 246° |
| 2026-05-04 22:49 | 43.50767 | 6.23189 | 30992 ft | 461 kts | 246° |
| 2026-05-04 22:49 | 43.48325 | 6.15056 | 30991 ft | 461 kts | 246° |
| 2026-05-04 22:50 | 43.45855 | 6.06895 | 30988 ft | 461 kts | 245° |
| 2026-05-04 22:50 | 43.43351 | 5.98736 | 30983 ft | 462 kts | 245° |
| 2026-05-04 22:51 | 43.40867 | 5.90614 | 30976 ft | 462 kts | 246° |
| 2026-05-04 22:51 | 43.38372 | 5.82449 | 30972 ft | 462 kts | 245° |
| 2026-05-04 22:52 | 43.35876 | 5.74295 | 30965 ft | 462 kts | 245° |
| 2026-05-04 22:52 | 43.33375 | 5.66149 | 30957 ft | 462 kts | 245° |
| 2026-05-04 22:53 | 43.30882 | 5.58059 | 30946 ft | 462 kts | 245° |
| 2026-05-04 22:53 | 43.28380 | 5.49964 | 30940 ft | 462 kts | 245° |
| 2026-05-04 22:54 | 43.25875 | 5.41885 | 30939 ft | 461 kts | 245° |
| 2026-05-04 22:54 | 43.23355 | 5.33790 | 30939 ft | 461 kts | 245° |
| 2026-05-04 22:55 | 43.20815 | 5.25712 | 30938 ft | 460 kts | 245° |
| 2026-05-04 22:55 | 43.18280 | 5.17629 | 30936 ft | 460 kts | 245° |
| 2026-05-04 22:56 | 43.15772 | 5.09620 | 30935 ft | 460 kts | 245° |
| 2026-05-04 22:56 | 43.13256 | 5.01602 | 30935 ft | 459 kts | 245° |
| 2026-05-04 22:57 | 43.10726 | 4.93561 | 30939 ft | 459 kts | 245° |
| 2026-05-04 22:57 | 43.08196 | 4.85547 | 30931 ft | 458 kts | 245° |
| 2026-05-04 22:58 | 43.05313 | 4.77848 | 30930 ft | 455 kts | 233° |
| 2026-05-04 22:58 | 43.00946 | 4.71640 | 30930 ft | 453 kts | 220° |
| 2026-05-04 22:59 | 42.96099 | 4.66169 | 30927 ft | 453 kts | 219° |
| 2026-05-04 22:59 | 42.91295 | 4.60607 | 30922 ft | 452 kts | 220° |
| 2026-05-04 23:00 | 42.86585 | 4.54969 | 30922 ft | 452 kts | 221° |
| 2026-05-04 23:00 | 42.81863 | 4.49267 | 30919 ft | 452 kts | 221° |
| 2026-05-04 23:01 | 42.77161 | 4.43596 | 30919 ft | 452 kts | 221° |
| 2026-05-04 23:01 | 42.72473 | 4.37960 | 30918 ft | 451 kts | 221° |
| 2026-05-04 23:02 | 42.67760 | 4.32307 | 30921 ft | 451 kts | 221° |
| 2026-05-04 23:02 | 42.63050 | 4.26671 | 30917 ft | 450 kts | 221° |
| 2026-05-04 23:03 | 42.58369 | 4.21081 | 30920 ft | 450 kts | 220° |
| 2026-05-04 23:03 | 42.53659 | 4.15467 | 30918 ft | 450 kts | 220° |
| 2026-05-04 23:04 | 42.48974 | 4.09896 | 30919 ft | 450 kts | 220° |
| 2026-05-04 23:04 | 42.44259 | 4.04300 | 30920 ft | 449 kts | 220° |
| 2026-05-04 23:05 | 42.39538 | 3.98734 | 30924 ft | 450 kts | 220° |
| 2026-05-04 23:05 | 42.34831 | 3.93209 | 30928 ft | 450 kts | 220° |
| 2026-05-04 23:06 | 42.32476 | 3.90440 | 30752 ft | 444 kts | 220° |
| 2026-05-04 23:06 | 42.30177 | 3.87732 | 30430 ft | 436 kts | 220° |
| 2026-05-04 23:06 | 42.27929 | 3.84980 | 30270 ft | 431 kts | 223° |
| 2026-05-04 23:06 | 42.25822 | 3.82079 | 30267 ft | 435 kts | 225° |
| 2026-05-04 23:07 | 42.21674 | 3.76076 | 30268 ft | 436 kts | 226° |
| 2026-05-04 23:07 | 42.17545 | 3.70179 | 30269 ft | 435 kts | 225° |
| 2026-05-04 23:08 | 42.13338 | 3.64278 | 30269 ft | 435 kts | 225° |
| 2026-05-04 23:08 | 42.09121 | 3.58404 | 30276 ft | 435 kts | 225° |
| 2026-05-04 23:09 | 42.04921 | 3.52572 | 29893 ft | 438 kts | 225° |
| 2026-05-04 23:09 | 42.02803 | 3.49634 | 29404 ft | 436 kts | 225° |
| 2026-05-04 23:09 | 42.00685 | 3.46698 | 28936 ft | 437 kts | 225° |
| 2026-05-04 23:10 | 41.98549 | 3.43742 | 28345 ft | 440 kts | 225° |
| 2026-05-04 23:10 | 41.96414 | 3.40789 | 27786 ft | 441 kts | 225° |
| 2026-05-04 23:10 | 41.94270 | 3.37826 | 27193 ft | 443 kts | 225° |
| 2026-05-04 23:10 | 41.92111 | 3.34846 | 26627 ft | 445 kts | 226° |
| 2026-05-04 23:11 | 41.89979 | 3.31907 | 26063 ft | 445 kts | 226° |
| 2026-05-04 23:11 | 41.87820 | 3.28932 | 25497 ft | 442 kts | 226° |
| 2026-05-04 23:11 | 41.85683 | 3.25991 | 24943 ft | 437 kts | 226° |
| 2026-05-04 23:11 | 41.83565 | 3.23080 | 24399 ft | 433 kts | 226° |
| 2026-05-04 23:12 | 41.81470 | 3.20203 | 23840 ft | 428 kts | 226° |
| 2026-05-04 23:12 | 41.79419 | 3.17389 | 23258 ft | 424 kts | 226° |
| 2026-05-04 23:12 | 41.77357 | 3.14564 | 22658 ft | 419 kts | 226° |
| 2026-05-04 23:12 | 41.75351 | 3.11816 | 22112 ft | 414 kts | 226° |
| 2026-05-04 23:13 | 41.73341 | 3.09068 | 21585 ft | 409 kts | 226° |
| 2026-05-04 23:13 | 41.71358 | 3.06368 | 21055 ft | 405 kts | 226° |
| 2026-05-04 23:13 | 41.69383 | 3.03697 | 20540 ft | 401 kts | 226° |
| 2026-05-04 23:13 | 41.67430 | 3.01054 | 20027 ft | 396 kts | 226° |
| 2026-05-04 23:14 | 41.65500 | 2.98438 | 19519 ft | 392 kts | 226° |
| 2026-05-04 23:14 | 41.63592 | 2.95848 | 19023 ft | 388 kts | 226° |
| 2026-05-04 23:14 | 41.61705 | 2.93286 | 18533 ft | 384 kts | 226° |
| 2026-05-04 23:14 | 41.59836 | 2.90747 | 18017 ft | 380 kts | 226° |
| 2026-05-04 23:15 | 41.58013 | 2.88272 | 17488 ft | 376 kts | 226° |
| 2026-05-04 23:15 | 41.56182 | 2.85788 | 17003 ft | 373 kts | 226° |
| 2026-05-04 23:15 | 41.54368 | 2.83329 | 16514 ft | 370 kts | 226° |
| 2026-05-04 23:15 | 41.52559 | 2.80879 | 16034 ft | 367 kts | 226° |
| 2026-05-04 23:16 | 41.50770 | 2.78457 | 15575 ft | 364 kts | 226° |
| 2026-05-04 23:16 | 41.49012 | 2.76080 | 15099 ft | 362 kts | 226° |
| 2026-05-04 23:16 | 41.47247 | 2.73694 | 14644 ft | 360 kts | 226° |
| 2026-05-04 23:16 | 41.45491 | 2.71324 | 14178 ft | 357 kts | 226° |
| 2026-05-04 23:17 | 41.43744 | 2.68968 | 13718 ft | 355 kts | 226° |
| 2026-05-04 23:17 | 41.42030 | 2.66656 | 13220 ft | 353 kts | 226° |
| 2026-05-04 23:17 | 41.40307 | 2.64336 | 12747 ft | 352 kts | 226° |
| 2026-05-04 23:17 | 41.38584 | 2.62017 | 12287 ft | 351 kts | 226° |
| 2026-05-04 23:18 | 41.36870 | 2.59713 | 11839 ft | 350 kts | 226° |
| 2026-05-04 23:18 | 41.35158 | 2.57413 | 11394 ft | 348 kts | 226° |
| 2026-05-04 23:18 | 41.34035 | 2.55904 | 11174 ft | 346 kts | 226° |
| 2026-05-04 23:18 | 41.32331 | 2.53618 | 11009 ft | 341 kts | 226° |
| 2026-05-04 23:19 | 41.30707 | 2.51444 | 10900 ft | 320 kts | 226° |
| 2026-05-04 23:19 | 41.29188 | 2.49412 | 10785 ft | 300 kts | 226° |
| 2026-05-04 23:19 | 41.27805 | 2.47562 | 10681 ft | 282 kts | 226° |
| 2026-05-04 23:19 | 41.26453 | 2.45754 | 10574 ft | 269 kts | 226° |
| 2026-05-04 23:20 | 41.25120 | 2.43971 | 10375 ft | 273 kts | 226° |
| 2026-05-04 23:20 | 41.23778 | 2.42175 | 10021 ft | 271 kts | 226° |
| 2026-05-04 23:20 | 41.22452 | 2.40402 | 9643 ft | 269 kts | 226° |
| 2026-05-04 23:20 | 41.21149 | 2.38663 | 9253 ft | 269 kts | 226° |
| 2026-05-04 23:21 | 41.19823 | 2.36893 | 8757 ft | 270 kts | 226° |
| 2026-05-04 23:21 | 41.18494 | 2.35120 | 8251 ft | 270 kts | 226° |
| 2026-05-04 23:21 | 41.17168 | 2.33353 | 7755 ft | 269 kts | 226° |
| 2026-05-04 23:21 | 41.15864 | 2.31618 | 7289 ft | 268 kts | 226° |
| 2026-05-04 23:22 | 41.14562 | 2.29884 | 6923 ft | 262 kts | 226° |
| 2026-05-04 23:22 | 41.13279 | 2.28184 | 6555 ft | 259 kts | 226° |
| 2026-05-04 23:22 | 41.11998 | 2.26500 | 6183 ft | 258 kts | 226° |
| 2026-05-04 23:22 | 41.10717 | 2.24816 | 5808 ft | 258 kts | 226° |
| 2026-05-04 23:23 | 41.09450 | 2.23146 | 5425 ft | 255 kts | 226° |
| 2026-05-04 23:23 | 41.08842 | 2.22344 | 5254 ft | 252 kts | 225° |
| 2026-05-04 23:23 | 41.07835 | 2.20825 | 5006 ft | 235 kts | 237° |
| 2026-05-04 23:23 | 41.07269 | 2.18868 | 4696 ft | 225 kts | 262° |
| 2026-05-04 23:24 | 41.07180 | 2.16961 | 4432 ft | 228 kts | 268° |
| 2026-05-04 23:24 | 41.07168 | 2.14882 | 4131 ft | 227 kts | 269° |
| 2026-05-04 23:24 | 41.07159 | 2.12789 | 3828 ft | 226 kts | 269° |
| 2026-05-04 23:24 | 41.07156 | 2.10719 | 3654 ft | 224 kts | 271° |
| 2026-05-04 23:25 | 41.07525 | 2.08703 | 3482 ft | 227 kts | 292° |
| 2026-05-04 23:25 | 41.08234 | 2.06808 | 3344 ft | 224 kts | 296° |
| 2026-05-04 23:25 | 41.08945 | 2.05072 | 3178 ft | 204 kts | 297° |
| 2026-05-04 23:25 | 41.09679 | 2.03495 | 3049 ft | 204 kts | 306° |
| 2026-05-04 23:26 | 41.10724 | 2.02226 | 2985 ft | 204 kts | 327° |
| 2026-05-04 23:26 | 41.12056 | 2.01574 | 2985 ft | 207 kts | 352° |
| 2026-05-04 23:26 | 41.13488 | 2.01810 | 3020 ft | 210 kts | 12° |
| 2026-05-04 23:26 | 41.14908 | 2.02293 | 2840 ft | 213 kts | 13° |
| 2026-05-04 23:27 | 41.16325 | 2.02813 | 2550 ft | 209 kts | 15° |
| 2026-05-04 23:27 | 41.17702 | 2.03414 | 2273 ft | 206 kts | 17° |
| 2026-05-04 23:27 | 41.19062 | 2.04040 | 2002 ft | 207 kts | 18° |
| 2026-05-04 23:27 | 41.20418 | 2.04662 | 1752 ft | 203 kts | 18° |
| 2026-05-04 23:28 | 41.21682 | 2.05241 | 1435 ft | 183 kts | 18° |
| 2026-05-04 23:28 | 41.22842 | 2.05772 | 1198 ft | 172 kts | 18° |
| 2026-05-04 23:28 | 41.23968 | 2.06286 | 1006 ft | 170 kts | 18° |
| 2026-05-04 23:28 | 41.25072 | 2.06790 | 801 ft | 169 kts | 18° |
| 2026-05-04 23:29 | 41.26192 | 2.07297 | 586 ft | 167 kts | 16° |
| 2026-05-04 23:29 | 41.27290 | 2.07793 | 375 ft | 166 kts | 18° |
| 2026-05-04 23:29 | 41.28363 | 2.08293 | 135 ft | 165 kts | 17° |
| 2026-05-04 23:29 | 41.29408 | 2.08770 | 30 ft | 139 kts | 19° |
| 2026-05-04 23:30 | 41.30140 | 2.09107 | 25 ft | 82 kts | 19° |
| 2026-05-04 23:30 | 41.30474 | 2.09257 | 28 ft | 29 kts | 19° |
| 2026-05-04 23:30 | 41.30619 | 2.09234 | 27 ft | 21 kts | 321° |
| 2026-05-04 23:30 | 41.30680 | 2.09117 | 28 ft | 6 kts | 262° |
| 2026-05-04 23:31 | 41.30655 | 2.09081 | 28 ft | 6 kts | 210° |
| 2026-05-04 23:31 | 41.30600 | 2.09050 | 28 ft | 9 kts | 200° |
| 2026-05-04 23:31 | 41.30536 | 2.09022 | 29 ft | 10 kts | 198° |
| 2026-05-04 23:31 | 41.30470 | 2.08994 | 28 ft | 10 kts | 198° |
| 2026-05-04 23:32 | 41.30407 | 2.08941 | 30 ft | 12 kts | 232° |
| 2026-05-04 23:32 | 41.30362 | 2.08822 | 27 ft | 16 kts | 245° |
| 2026-05-04 23:32 | 41.30314 | 2.08681 | 28 ft | 17 kts | 246° |
| 2026-05-04 23:32 | 41.30264 | 2.08530 | 28 ft | 18 kts | 246° |
| 2026-05-04 23:33 | 41.30209 | 2.08375 | 28 ft | 19 kts | 245° |
| 2026-05-04 23:33 | 41.30153 | 2.08212 | 29 ft | 20 kts | 245° |
| 2026-05-04 23:33 | 41.30094 | 2.08037 | 25 ft | 21 kts | 245° |
| 2026-05-04 23:33 | 41.30032 | 2.07857 | 27 ft | 21 kts | 246° |
| 2026-05-04 23:34 | 41.29974 | 2.07681 | 26 ft | 20 kts | 246° |
| 2026-05-04 23:34 | 41.29916 | 2.07520 | 25 ft | 18 kts | 244° |
| 2026-05-04 23:34 | 41.29867 | 2.07379 | 26 ft | 16 kts | 246° |
| 2026-05-04 23:34 | 41.29825 | 2.07251 | 26 ft | 14 kts | 248° |
| 2026-05-04 23:35 | 41.29790 | 2.07136 | 26 ft | 13 kts | 246° |
| 2026-05-04 23:35 | 41.29749 | 2.07011 | 27 ft | 16 kts | 246° |
| 2026-05-04 23:35 | 41.29698 | 2.06862 | 24 ft | 19 kts | 246° |
| 2026-05-04 23:35 | 41.29642 | 2.06694 | 26 ft | 21 kts | 246° |
| 2026-05-04 23:36 | 41.29580 | 2.06518 | 26 ft | 20 kts | 244° |
| 2026-05-04 23:36 | 41.29564 | 2.06386 | 27 ft | 9 kts | 302° |
| 2026-05-04 23:36 | 41.29598 | 2.06346 | 28 ft | 5 kts | 327° |
| 2026-05-04 23:36 | 41.29628 | 2.06323 | 29 ft | 6 kts | 330° |
| 2026-05-04 23:37 | 41.29643 | 2.06314 | 26 ft | 0 kts | 348° |
| 2026-05-04 23:37 | 41.29653 | 2.06322 | 26 ft | 3 kts | 33° |
| 2026-05-04 23:37 | 41.29666 | 2.06355 | 26 ft | 1 kts | 72° |
| 2026-05-04 23:37 | 41.29670 | 2.06372 | 26 ft | 0 kts | 70° |